Mertzon, Texas
Current Conditions -  °F | °C
As of 4:51 AM on Thursday 18 Dec 2014 (Local Time) from KSJT Reporting Station
Haze Haze  
Wind Chill: 44°   Ceiling: 200
Heat Index: 48°   Visibility: 6mi
Dew Point: 46°   Wind: 8mph
Humidity: 93%   Direction: 240°WSW
Pressure: 30.08"   Gusts: NA
Location:  31.26°N, 100.82°W
Report Text: KSJT 181051Z AUTO 24007KT 6SM BR OVC002 09/08 A3008 RMK AO2 SLP184 T00890078
Loading
Personal Weather Stations






























Interactive Weather Map New forecast layout! Learn more

10-Day Weather Forecast

Advertisements
Track Severe Weather on mobile